sensor_id;sensor_type;location;lat;lon;timestamp;P1;durP1;ratioP1;P2;durP2;ratioP2
11082;SDS011;5595;50.186;8.468;2023-07-20T00:02:03;0.63;;;0.30;;
11082;SDS011;5595;50.186;8.468;2023-07-20T00:04:32;1.27;;;0.50;;
11082;SDS011;5595;50.186;8.468;2023-07-20T00:06:59;0.77;;;0.73;;
11082;SDS011;5595;50.186;8.468;2023-07-20T00:09:28;0.38;;;0.38;;
11082;SDS011;5595;50.186;8.468;2023-07-20T00:11:54;1.23;;;0.77;;
11082;SDS011;5595;50.186;8.468;2023-07-20T00:14:21;1.30;;;0.70;;
11082;SDS011;5595;50.186;8.468;2023-07-20T00:16:49;1.63;;;0.70;;
11082;SDS011;5595;50.186;8.468;2023-07-20T00:19:20;3.15;;;0.65;;
11082;SDS011;5595;50.186;8.468;2023-07-20T00:21:48;1.83;;;0.65;;
11082;SDS011;5595;50.186;8.468;2023-07-20T00:24:14;4.15;;;0.55;;
11082;SDS011;5595;50.186;8.468;2023-07-20T00:26:43;0.73;;;0.60;;
11082;SDS011;5595;50.186;8.468;2023-07-20T00:29:10;1.17;;;0.50;;
11082;SDS011;5595;50.186;8.468;2023-07-20T00:31:37;5.00;;;0.68;;
11082;SDS011;5595;50.186;8.468;2023-07-20T00:34:04;0.75;;;0.70;;
11082;SDS011;5595;50.186;8.468;2023-07-20T00:36:31;1.00;;;0.68;;
11082;SDS011;5595;50.186;8.468;2023-07-20T00:38:57;0.70;;;0.50;;
11082;SDS011;5595;50.186;8.468;2023-07-20T00:41:24;2.47;;;0.60;;
11082;SDS011;5595;50.186;8.468;2023-07-20T00:43:55;0.63;;;0.52;;
11082;SDS011;5595;50.186;8.468;2023-07-20T00:46:22;2.05;;;0.98;;
11082;SDS011;5595;50.186;8.468;2023-07-20T00:48:50;0.85;;;0.60;;
11082;SDS011;5595;50.186;8.468;2023-07-20T00:51:18;1.50;;;0.65;;
11082;SDS011;5595;50.186;8.468;2023-07-20T00:53:46;0.50;;;0.50;;
11082;SDS011;5595;50.186;8.468;2023-07-20T00:56:13;1.23;;;0.63;;
11082;SDS011;5595;50.186;8.468;2023-07-20T00:58:40;1.52;;;0.57;;
11082;SDS011;5595;50.186;8.468;2023-07-20T01:01:08;2.45;;;0.77;;
11082;SDS011;5595;50.186;8.468;2023-07-20T01:03:35;1.55;;;0.55;;
11082;SDS011;5595;50.186;8.468;2023-07-20T01:06:05;1.42;;;1.10;;
11082;SDS011;5595;50.186;8.468;2023-07-20T01:08:46;0.80;;;0.60;;
11082;SDS011;5595;50.186;8.468;2023-07-20T01:11:24;2.70;;;0.60;;
11082;SDS011;5595;50.186;8.468;2023-07-20T01:13:57;3.53;;;0.77;;
11082;SDS011;5595;50.186;8.468;2023-07-20T01:16:25;0.80;;;0.45;;
11082;SDS011;5595;50.186;8.468;2023-07-20T01:18:53;1.25;;;0.60;;
11082;SDS011;5595;50.186;8.468;2023-07-20T01:21:21;1.45;;;1.15;;
11082;SDS011;5595;50.186;8.468;2023-07-20T01:27:00;1.70;;;0.65;;
11082;SDS011;5595;50.186;8.468;2023-07-20T01:29:58;1.60;;;0.80;;
11082;SDS011;5595;50.186;8.468;2023-07-20T01:32:42;0.85;;;0.65;;
11082;SDS011;5595;50.186;8.468;2023-07-20T01:35:10;1.73;;;0.73;;
11082;SDS011;5595;50.186;8.468;2023-07-20T01:37:40;0.98;;;0.65;;
11082;SDS011;5595;50.186;8.468;2023-07-20T01:40:09;1.73;;;0.60;;
11082;SDS011;5595;50.186;8.468;2023-07-20T01:42:37;1.17;;;0.70;;
11082;SDS011;5595;50.186;8.468;2023-07-20T01:45:03;1.10;;;0.73;;
11082;SDS011;5595;50.186;8.468;2023-07-20T01:47:31;1.10;;;1.00;;
11082;SDS011;5595;50.186;8.468;2023-07-20T01:49:59;0.75;;;0.50;;
11082;SDS011;5595;50.186;8.468;2023-07-20T01:52:25;1.75;;;0.57;;
11082;SDS011;5595;50.186;8.468;2023-07-20T01:54:52;0.85;;;0.85;;
11082;SDS011;5595;50.186;8.468;2023-07-20T01:57:19;0.70;;;0.65;;
11082;SDS011;5595;50.186;8.468;2023-07-20T01:59:46;1.17;;;1.05;;
11082;SDS011;5595;50.186;8.468;2023-07-20T02:02:12;1.50;;;0.93;;
11082;SDS011;5595;50.186;8.468;2023-07-20T02:04:39;2.13;;;0.70;;
11082;SDS011;5595;50.186;8.468;2023-07-20T02:07:07;2.28;;;0.75;;
11082;SDS011;5595;50.186;8.468;2023-07-20T02:09:34;1.88;;;0.80;;
11082;SDS011;5595;50.186;8.468;2023-07-20T02:12:01;0.60;;;0.60;;
11082;SDS011;5595;50.186;8.468;2023-07-20T02:14:27;1.45;;;0.75;;
11082;SDS011;5595;50.186;8.468;2023-07-20T02:16:54;1.55;;;0.90;;
11082;SDS011;5595;50.186;8.468;2023-07-20T02:19:24;2.38;;;1.00;;
11082;SDS011;5595;50.186;8.468;2023-07-20T02:21:51;2.45;;;1.00;;
11082;SDS011;5595;50.186;8.468;2023-07-20T02:24:19;0.95;;;0.95;;
11082;SDS011;5595;50.186;8.468;2023-07-20T02:26:46;1.20;;;1.00;;
11082;SDS011;5595;50.186;8.468;2023-07-20T02:29:13;2.50;;;0.80;;
11082;SDS011;5595;50.186;8.468;2023-07-20T02:31:40;1.85;;;0.90;;
11082;SDS011;5595;50.186;8.468;2023-07-20T02:34:08;1.35;;;0.80;;
11082;SDS011;5595;50.186;8.468;2023-07-20T02:36:35;0.93;;;0.77;;
11082;SDS011;5595;50.186;8.468;2023-07-20T02:39:02;4.68;;;1.00;;
11082;SDS011;5595;50.186;8.468;2023-07-20T02:41:30;2.50;;;1.15;;
11082;SDS011;5595;50.186;8.468;2023-07-20T02:43:59;0.70;;;0.68;;
11082;SDS011;5595;50.186;8.468;2023-07-20T02:46:26;1.02;;;0.73;;
11082;SDS011;5595;50.186;8.468;2023-07-20T02:48:55;1.33;;;0.88;;
11082;SDS011;5595;50.186;8.468;2023-07-20T02:51:21;1.27;;;0.85;;
11082;SDS011;5595;50.186;8.468;2023-07-20T02:53:48;0.60;;;0.50;;
11082;SDS011;5595;50.186;8.468;2023-07-20T02:56:15;2.78;;;0.90;;
11082;SDS011;5595;50.186;8.468;2023-07-20T02:58:44;1.50;;;0.93;;
11082;SDS011;5595;50.186;8.468;2023-07-20T03:01:11;1.63;;;0.85;;
11082;SDS011;5595;50.186;8.468;2023-07-20T03:03:39;1.35;;;0.90;;
11082;SDS011;5595;50.186;8.468;2023-07-20T03:06:07;1.45;;;1.08;;
11082;SDS011;5595;50.186;8.468;2023-07-20T03:08:34;0.60;;;0.60;;
11082;SDS011;5595;50.186;8.468;2023-07-20T03:11:01;2.38;;;0.70;;
11082;SDS011;5595;50.186;8.468;2023-07-20T03:13:28;1.02;;;0.70;;
11082;SDS011;5595;50.186;8.468;2023-07-20T03:15:56;2.42;;;0.65;;
11082;SDS011;5595;50.186;8.468;2023-07-20T03:18:23;1.25;;;0.55;;
11082;SDS011;5595;50.186;8.468;2023-07-20T03:20:50;1.35;;;0.70;;
11082;SDS011;5595;50.186;8.468;2023-07-20T03:23:16;1.17;;;0.75;;
11082;SDS011;5595;50.186;8.468;2023-07-20T03:25:43;1.25;;;0.47;;
11082;SDS011;5595;50.186;8.468;2023-07-20T03:28:10;0.85;;;0.50;;
11082;SDS011;5595;50.186;8.468;2023-07-20T03:30:37;1.65;;;0.70;;
11082;SDS011;5595;50.186;8.468;2023-07-20T03:33:05;0.50;;;0.50;;
11082;SDS011;5595;50.186;8.468;2023-07-20T03:35:31;0.50;;;0.50;;
11082;SDS011;5595;50.186;8.468;2023-07-20T03:37:58;1.15;;;0.60;;
11082;SDS011;5595;50.186;8.468;2023-07-20T03:40:25;0.60;;;0.60;;
11082;SDS011;5595;50.186;8.468;2023-07-20T03:42:52;0.55;;;0.50;;
11082;SDS011;5595;50.186;8.468;2023-07-20T03:45:20;0.70;;;0.57;;
11082;SDS011;5595;50.186;8.468;2023-07-20T03:47:49;0.50;;;0.40;;
11082;SDS011;5595;50.186;8.468;2023-07-20T03:50:18;0.65;;;0.65;;
11082;SDS011;5595;50.186;8.468;2023-07-20T03:52:44;0.50;;;0.50;;
11082;SDS011;5595;50.186;8.468;2023-07-20T03:55:11;1.33;;;0.60;;
11082;SDS011;5595;50.186;8.468;2023-07-20T03:57:38;0.75;;;0.50;;
11082;SDS011;5595;50.186;8.468;2023-07-20T04:00:05;1.17;;;0.73;;
11082;SDS011;5595;50.186;8.468;2023-07-20T04:02:34;0.80;;;0.50;;
11082;SDS011;5595;50.186;8.468;2023-07-20T04:05:00;0.65;;;0.65;;
11082;SDS011;5595;50.186;8.468;2023-07-20T04:07:29;2.05;;;0.80;;
11082;SDS011;5595;50.186;8.468;2023-07-20T04:09:55;0.40;;;0.40;;
11082;SDS011;5595;50.186;8.468;2023-07-20T04:12:22;1.55;;;0.93;;
11082;SDS011;5595;50.186;8.468;2023-07-20T04:14:49;0.95;;;0.80;;
11082;SDS011;5595;50.186;8.468;2023-07-20T04:17:16;1.00;;;0.80;;
11082;SDS011;5595;50.186;8.468;2023-07-20T04:19:44;1.33;;;0.50;;
11082;SDS011;5595;50.186;8.468;2023-07-20T04:22:10;1.75;;;0.63;;
11082;SDS011;5595;50.186;8.468;2023-07-20T04:24:41;1.65;;;1.00;;
11082;SDS011;5595;50.186;8.468;2023-07-20T04:27:08;1.40;;;0.93;;
11082;SDS011;5595;50.186;8.468;2023-07-20T04:29:35;1.77;;;0.82;;
11082;SDS011;5595;50.186;8.468;2023-07-20T04:32:02;3.25;;;1.05;;
11082;SDS011;5595;50.186;8.468;2023-07-20T04:34:29;2.40;;;0.80;;
11082;SDS011;5595;50.186;8.468;2023-07-20T04:36:56;0.52;;;0.50;;
11082;SDS011;5595;50.186;8.468;2023-07-20T04:39:23;1.55;;;0.95;;
11082;SDS011;5595;50.186;8.468;2023-07-20T04:41:51;0.93;;;0.65;;
11082;SDS011;5595;50.186;8.468;2023-07-20T04:44:17;1.20;;;0.60;;
11082;SDS011;5595;50.186;8.468;2023-07-20T04:46:44;1.38;;;0.55;;
11082;SDS011;5595;50.186;8.468;2023-07-20T04:49:11;0.90;;;0.70;;
11082;SDS011;5595;50.186;8.468;2023-07-20T04:51:38;1.27;;;0.50;;
11082;SDS011;5595;50.186;8.468;2023-07-20T04:54:05;2.65;;;1.10;;
11082;SDS011;5595;50.186;8.468;2023-07-20T04:56:32;0.60;;;0.60;;
11082;SDS011;5595;50.186;8.468;2023-07-20T04:59:00;1.05;;;0.65;;
11082;SDS011;5595;50.186;8.468;2023-07-20T05:01:27;0.55;;;0.55;;
11082;SDS011;5595;50.186;8.468;2023-07-20T05:03:53;0.65;;;0.63;;
11082;SDS011;5595;50.186;8.468;2023-07-20T05:06:20;0.88;;;0.60;;
11082;SDS011;5595;50.186;8.468;2023-07-20T05:08:47;1.85;;;0.63;;
11082;SDS011;5595;50.186;8.468;2023-07-20T05:11:14;1.42;;;1.00;;
11082;SDS011;5595;50.186;8.468;2023-07-20T05:13:41;1.30;;;0.82;;
11082;SDS011;5595;50.186;8.468;2023-07-20T05:16:09;0.85;;;0.77;;
11082;SDS011;5595;50.186;8.468;2023-07-20T05:18:35;0.98;;;0.75;;
11082;SDS011;5595;50.186;8.468;2023-07-20T05:21:02;0.98;;;0.52;;
11082;SDS011;5595;50.186;8.468;2023-07-20T05:23:29;0.95;;;0.50;;
11082;SDS011;5595;50.186;8.468;2023-07-20T05:25:56;0.70;;;0.60;;
11082;SDS011;5595;50.186;8.468;2023-07-20T05:28:24;0.90;;;0.68;;
11082;SDS011;5595;50.186;8.468;2023-07-20T05:30:51;0.70;;;0.68;;
11082;SDS011;5595;50.186;8.468;2023-07-20T05:33:20;0.60;;;0.60;;
11082;SDS011;5595;50.186;8.468;2023-07-20T05:35:47;0.75;;;0.60;;
11082;SDS011;5595;50.186;8.468;2023-07-20T05:38:14;0.40;;;0.40;;
11082;SDS011;5595;50.186;8.468;2023-07-20T05:40:41;0.70;;;0.60;;
11082;SDS011;5595;50.186;8.468;2023-07-20T05:43:08;3.35;;;1.08;;
11082;SDS011;5595;50.186;8.468;2023-07-20T05:45:35;0.47;;;0.40;;
11082;SDS011;5595;50.186;8.468;2023-07-20T05:48:02;1.40;;;0.50;;
11082;SDS011;5595;50.186;8.468;2023-07-20T05:50:30;0.50;;;0.40;;
11082;SDS011;5595;50.186;8.468;2023-07-20T05:52:57;2.03;;;0.55;;
11082;SDS011;5595;50.186;8.468;2023-07-20T05:55:24;0.98;;;0.45;;
11082;SDS011;5595;50.186;8.468;2023-07-20T05:57:51;0.57;;;0.50;;
11082;SDS011;5595;50.186;8.468;2023-07-20T06:00:20;1.00;;;0.77;;
11082;SDS011;5595;50.186;8.468;2023-07-20T06:02:51;1.42;;;0.60;;
11082;SDS011;5595;50.186;8.468;2023-07-20T06:05:18;0.52;;;0.50;;
11082;SDS011;5595;50.186;8.468;2023-07-20T06:07:46;0.50;;;0.40;;
11082;SDS011;5595;50.186;8.468;2023-07-20T06:10:13;1.55;;;0.75;;
11082;SDS011;5595;50.186;8.468;2023-07-20T06:12:40;0.60;;;0.60;;
11082;SDS011;5595;50.186;8.468;2023-07-20T06:15:16;2.10;;;0.68;;
11082;SDS011;5595;50.186;8.468;2023-07-20T06:17:51;0.82;;;0.70;;
11082;SDS011;5595;50.186;8.468;2023-07-20T06:20:19;1.15;;;1.05;;
11082;SDS011;5595;50.186;8.468;2023-07-20T06:22:47;0.95;;;0.80;;
11082;SDS011;5595;50.186;8.468;2023-07-20T06:25:14;1.75;;;0.73;;
11082;SDS011;5595;50.186;8.468;2023-07-20T06:27:41;1.65;;;0.85;;
11082;SDS011;5595;50.186;8.468;2023-07-20T06:30:09;1.10;;;1.00;;
11082;SDS011;5595;50.186;8.468;2023-07-20T06:32:36;1.23;;;0.90;;
11082;SDS011;5595;50.186;8.468;2023-07-20T06:35:04;0.95;;;0.85;;
11082;SDS011;5595;50.186;8.468;2023-07-20T06:37:33;1.35;;;0.90;;
11082;SDS011;5595;50.186;8.468;2023-07-20T06:40:01;4.13;;;1.08;;
11082;SDS011;5595;50.186;8.468;2023-07-20T06:42:28;0.98;;;0.57;;
11082;SDS011;5595;50.186;8.468;2023-07-20T06:44:56;0.70;;;0.65;;
11082;SDS011;5595;50.186;8.468;2023-07-20T06:47:23;0.93;;;0.60;;
11082;SDS011;5595;50.186;8.468;2023-07-20T06:49:50;1.00;;;0.90;;
11082;SDS011;5595;50.186;8.468;2023-07-20T06:52:17;1.63;;;1.13;;
11082;SDS011;5595;50.186;8.468;2023-07-20T06:54:43;0.80;;;0.80;;
11082;SDS011;5595;50.186;8.468;2023-07-20T06:57:11;0.93;;;0.82;;
11082;SDS011;5595;50.186;8.468;2023-07-20T06:59:38;1.20;;;1.10;;
11082;SDS011;5595;50.186;8.468;2023-07-20T07:02:05;0.57;;;0.57;;
11082;SDS011;5595;50.186;8.468;2023-07-20T07:04:32;2.03;;;0.50;;
11082;SDS011;5595;50.186;8.468;2023-07-20T07:06:59;1.10;;;1.08;;
11082;SDS011;5595;50.186;8.468;2023-07-20T07:09:26;1.95;;;1.00;;
11082;SDS011;5595;50.186;8.468;2023-07-20T07:11:52;1.23;;;0.90;;
11082;SDS011;5595;50.186;8.468;2023-07-20T07:14:21;1.15;;;0.90;;
11082;SDS011;5595;50.186;8.468;2023-07-20T07:16:47;1.58;;;0.85;;
11082;SDS011;5595;50.186;8.468;2023-07-20T07:19:14;2.13;;;0.75;;
11082;SDS011;5595;50.186;8.468;2023-07-20T07:21:41;1.02;;;0.70;;
11082;SDS011;5595;50.186;8.468;2023-07-20T07:24:08;0.70;;;0.70;;
11082;SDS011;5595;50.186;8.468;2023-07-20T07:26:35;1.13;;;0.93;;
11082;SDS011;5595;50.186;8.468;2023-07-20T07:29:02;1.10;;;0.90;;
11082;SDS011;5595;50.186;8.468;2023-07-20T07:31:30;1.13;;;0.88;;
11082;SDS011;5595;50.186;8.468;2023-07-20T07:34:00;0.68;;;0.57;;
11082;SDS011;5595;50.186;8.468;2023-07-20T07:36:27;1.30;;;0.60;;
11082;SDS011;5595;50.186;8.468;2023-07-20T07:38:54;2.17;;;0.98;;
11082;SDS011;5595;50.186;8.468;2023-07-20T07:41:20;2.50;;;0.95;;
11082;SDS011;5595;50.186;8.468;2023-07-20T07:43:48;1.58;;;0.93;;
11082;SDS011;5595;50.186;8.468;2023-07-20T07:46:14;0.65;;;0.65;;
11082;SDS011;5595;50.186;8.468;2023-07-20T07:48:43;0.80;;;0.70;;
11082;SDS011;5595;50.186;8.468;2023-07-20T07:51:09;1.55;;;0.73;;
11082;SDS011;5595;50.186;8.468;2023-07-20T07:53:37;1.50;;;0.70;;
11082;SDS011;5595;50.186;8.468;2023-07-20T07:56:06;0.77;;;0.70;;
11082;SDS011;5595;50.186;8.468;2023-07-20T07:58:33;0.80;;;0.80;;
11082;SDS011;5595;50.186;8.468;2023-07-20T08:01:02;0.85;;;0.80;;
11082;SDS011;5595;50.186;8.468;2023-07-20T08:03:32;1.33;;;0.73;;
11082;SDS011;5595;50.186;8.468;2023-07-20T08:06:02;1.48;;;1.17;;
11082;SDS011;5595;50.186;8.468;2023-07-20T08:08:29;0.70;;;0.70;;
11082;SDS011;5595;50.186;8.468;2023-07-20T08:10:56;1.77;;;0.85;;
11082;SDS011;5595;50.186;8.468;2023-07-20T08:13:24;1.10;;;0.98;;
11082;SDS011;5595;50.186;8.468;2023-07-20T08:15:50;0.90;;;0.90;;
11082;SDS011;5595;50.186;8.468;2023-07-20T08:18:17;2.03;;;1.17;;
11082;SDS011;5595;50.186;8.468;2023-07-20T08:20:45;0.80;;;0.80;;
11082;SDS011;5595;50.186;8.468;2023-07-20T08:23:13;1.15;;;0.80;;
11082;SDS011;5595;50.186;8.468;2023-07-20T08:25:40;0.90;;;0.73;;
11082;SDS011;5595;50.186;8.468;2023-07-20T08:28:09;0.93;;;0.70;;
11082;SDS011;5595;50.186;8.468;2023-07-20T08:30:39;0.90;;;0.80;;
11082;SDS011;5595;50.186;8.468;2023-07-20T08:33:07;0.73;;;0.70;;
11082;SDS011;5595;50.186;8.468;2023-07-20T08:35:33;0.80;;;0.80;;
11082;SDS011;5595;50.186;8.468;2023-07-20T08:38:00;1.20;;;0.52;;
11082;SDS011;5595;50.186;8.468;2023-07-20T08:40:30;4.22;;;0.95;;
11082;SDS011;5595;50.186;8.468;2023-07-20T08:42:58;1.13;;;1.00;;
11082;SDS011;5595;50.186;8.468;2023-07-20T08:45:26;0.60;;;0.52;;
11082;SDS011;5595;50.186;8.468;2023-07-20T08:47:55;1.02;;;0.68;;
11082;SDS011;5595;50.186;8.468;2023-07-20T08:50:24;1.23;;;0.82;;
11082;SDS011;5595;50.186;8.468;2023-07-20T08:52:52;1.17;;;0.85;;
11082;SDS011;5595;50.186;8.468;2023-07-20T08:55:19;2.67;;;0.60;;
11082;SDS011;5595;50.186;8.468;2023-07-20T08:57:49;1.05;;;0.80;;
11082;SDS011;5595;50.186;8.468;2023-07-20T09:00:19;0.93;;;0.80;;
11082;SDS011;5595;50.186;8.468;2023-07-20T09:02:46;0.85;;;0.82;;
11082;SDS011;5595;50.186;8.468;2023-07-20T09:05:15;0.98;;;0.60;;
11082;SDS011;5595;50.186;8.468;2023-07-20T09:07:42;0.75;;;0.60;;
11082;SDS011;5595;50.186;8.468;2023-07-20T09:10:09;0.80;;;0.73;;
11082;SDS011;5595;50.186;8.468;2023-07-20T09:12:37;0.52;;;0.52;;
11082;SDS011;5595;50.186;8.468;2023-07-20T09:15:06;0.52;;;0.52;;
11082;SDS011;5595;50.186;8.468;2023-07-20T09:17:34;1.10;;;0.60;;
11082;SDS011;5595;50.186;8.468;2023-07-20T09:20:02;2.30;;;0.90;;
11082;SDS011;5595;50.186;8.468;2023-07-20T09:22:33;0.65;;;0.57;;
11082;SDS011;5595;50.186;8.468;2023-07-20T09:25:00;0.60;;;0.50;;
11082;SDS011;5595;50.186;8.468;2023-07-20T09:27:34;1.35;;;0.70;;
11082;SDS011;5595;50.186;8.468;2023-07-20T09:30:02;0.40;;;0.40;;
11082;SDS011;5595;50.186;8.468;2023-07-20T09:32:31;2.30;;;0.65;;
11082;SDS011;5595;50.186;8.468;2023-07-20T09:35:12;1.98;;;0.60;;
11082;SDS011;5595;50.186;8.468;2023-07-20T09:37:39;0.50;;;0.50;;
11082;SDS011;5595;50.186;8.468;2023-07-20T09:40:11;0.70;;;0.70;;
11082;SDS011;5595;50.186;8.468;2023-07-20T09:42:41;0.50;;;0.50;;
11082;SDS011;5595;50.186;8.468;2023-07-20T09:45:08;1.05;;;0.55;;
11082;SDS011;5595;50.186;8.468;2023-07-20T09:47:38;0.40;;;0.40;;
11082;SDS011;5595;50.186;8.468;2023-07-20T09:50:06;2.10;;;0.50;;
11082;SDS011;5595;50.186;8.468;2023-07-20T09:52:35;0.32;;;0.32;;
11082;SDS011;5595;50.186;8.468;2023-07-20T09:55:05;2.83;;;0.50;;
11082;SDS011;5595;50.186;8.468;2023-07-20T09:57:32;0.40;;;0.40;;
11082;SDS011;5595;50.186;8.468;2023-07-20T10:00:04;1.10;;;0.60;;
11082;SDS011;5595;50.186;8.468;2023-07-20T10:02:43;0.40;;;0.40;;
11082;SDS011;5595;50.186;8.468;2023-07-20T10:05:11;1.20;;;0.40;;
11082;SDS011;5595;50.186;8.468;2023-07-20T10:07:42;0.52;;;0.40;;
11082;SDS011;5595;50.186;8.468;2023-07-20T10:10:13;0.40;;;0.40;;
11082;SDS011;5595;50.186;8.468;2023-07-20T10:12:42;0.50;;;0.30;;
11082;SDS011;5595;50.186;8.468;2023-07-20T10:15:11;1.05;;;0.50;;
11082;SDS011;5595;50.186;8.468;2023-07-20T10:17:45;1.20;;;0.47;;
11082;SDS011;5595;50.186;8.468;2023-07-20T10:20:19;0.77;;;0.65;;
11082;SDS011;5595;50.186;8.468;2023-07-20T10:22:47;1.17;;;0.60;;
11082;SDS011;5595;50.186;8.468;2023-07-20T10:25:19;0.57;;;0.45;;
11082;SDS011;5595;50.186;8.468;2023-07-20T10:27:48;0.60;;;0.40;;
11082;SDS011;5595;50.186;8.468;2023-07-20T10:30:15;0.47;;;0.47;;
11082;SDS011;5595;50.186;8.468;2023-07-20T10:32:45;0.47;;;0.47;;
11082;SDS011;5595;50.186;8.468;2023-07-20T10:35:13;0.55;;;0.50;;
11082;SDS011;5595;50.186;8.468;2023-07-20T10:37:50;0.55;;;0.55;;
11082;SDS011;5595;50.186;8.468;2023-07-20T10:40:29;0.70;;;0.70;;
11082;SDS011;5595;50.186;8.468;2023-07-20T10:43:01;1.38;;;0.80;;
11082;SDS011;5595;50.186;8.468;2023-07-20T10:45:35;3.30;;;0.57;;
11082;SDS011;5595;50.186;8.468;2023-07-20T10:48:12;1.33;;;0.80;;
11082;SDS011;5595;50.186;8.468;2023-07-20T10:50:40;0.68;;;0.68;;
11082;SDS011;5595;50.186;8.468;2023-07-20T10:53:11;0.90;;;0.75;;
11082;SDS011;5595;50.186;8.468;2023-07-20T10:55:40;1.33;;;0.50;;
11082;SDS011;5595;50.186;8.468;2023-07-20T10:58:09;0.50;;;0.50;;
11082;SDS011;5595;50.186;8.468;2023-07-20T11:00:36;0.93;;;0.68;;
11082;SDS011;5595;50.186;8.468;2023-07-20T11:03:04;0.85;;;0.60;;
11082;SDS011;5595;50.186;8.468;2023-07-20T11:05:35;0.73;;;0.73;;
11082;SDS011;5595;50.186;8.468;2023-07-20T11:08:05;1.55;;;0.50;;
11082;SDS011;5595;50.186;8.468;2023-07-20T11:10:35;0.60;;;0.60;;
11082;SDS011;5595;50.186;8.468;2023-07-20T11:13:17;0.60;;;0.60;;
11082;SDS011;5595;50.186;8.468;2023-07-20T11:15:46;0.77;;;0.60;;
11082;SDS011;5595;50.186;8.468;2023-07-20T11:18:14;0.50;;;0.50;;
11082;SDS011;5595;50.186;8.468;2023-07-20T11:20:42;1.02;;;0.50;;
11082;SDS011;5595;50.186;8.468;2023-07-20T11:23:09;0.47;;;0.47;;
11082;SDS011;5595;50.186;8.468;2023-07-20T11:25:37;0.50;;;0.47;;
11082;SDS011;5595;50.186;8.468;2023-07-20T11:28:08;0.50;;;0.47;;
11082;SDS011;5595;50.186;8.468;2023-07-20T11:30:36;4.28;;;0.60;;
11082;SDS011;5595;50.186;8.468;2023-07-20T11:33:04;0.73;;;0.30;;
11082;SDS011;5595;50.186;8.468;2023-07-20T11:35:31;0.93;;;0.50;;
11082;SDS011;5595;50.186;8.468;2023-07-20T11:38:03;1.10;;;0.50;;
11082;SDS011;5595;50.186;8.468;2023-07-20T11:40:32;0.82;;;0.40;;
11082;SDS011;5595;50.186;8.468;2023-07-20T11:42:59;0.47;;;0.47;;
11082;SDS011;5595;50.186;8.468;2023-07-20T11:45:26;2.42;;;0.47;;
11082;SDS011;5595;50.186;8.468;2023-07-20T11:47:58;0.68;;;0.40;;
11082;SDS011;5595;50.186;8.468;2023-07-20T11:50:25;6.47;;;0.98;;
11082;SDS011;5595;50.186;8.468;2023-07-20T11:52:52;1.27;;;0.50;;
11082;SDS011;5595;50.186;8.468;2023-07-20T11:55:20;0.63;;;0.63;;
11082;SDS011;5595;50.186;8.468;2023-07-20T11:58:00;1.13;;;0.30;;
11082;SDS011;5595;50.186;8.468;2023-07-20T12:00:27;0.90;;;0.40;;
11082;SDS011;5595;50.186;8.468;2023-07-20T12:02:54;0.55;;;0.50;;
11082;SDS011;5595;50.186;8.468;2023-07-20T12:05:22;0.30;;;0.30;;
11082;SDS011;5595;50.186;8.468;2023-07-20T12:07:49;0.45;;;0.30;;
11082;SDS011;5595;50.186;8.468;2023-07-20T12:10:22;0.25;;;0.20;;
11082;SDS011;5595;50.186;8.468;2023-07-20T12:12:52;0.20;;;0.20;;
11082;SDS011;5595;50.186;8.468;2023-07-20T12:15:20;0.40;;;0.40;;
11082;SDS011;5595;50.186;8.468;2023-07-20T12:17:49;0.55;;;0.20;;
11082;SDS011;5595;50.186;8.468;2023-07-20T12:20:24;0.30;;;0.30;;
11082;SDS011;5595;50.186;8.468;2023-07-20T12:22:52;0.30;;;0.30;;
11082;SDS011;5595;50.186;8.468;2023-07-20T12:25:21;0.55;;;0.38;;
11082;SDS011;5595;50.186;8.468;2023-07-20T12:27:49;0.57;;;0.38;;
11082;SDS011;5595;50.186;8.468;2023-07-20T12:30:16;0.47;;;0.30;;
11082;SDS011;5595;50.186;8.468;2023-07-20T12:32:43;0.30;;;0.30;;
11082;SDS011;5595;50.186;8.468;2023-07-20T12:35:12;0.30;;;0.30;;
11082;SDS011;5595;50.186;8.468;2023-07-20T12:37:39;0.55;;;0.30;;
11082;SDS011;5595;50.186;8.468;2023-07-20T12:40:07;1.75;;;0.40;;
11082;SDS011;5595;50.186;8.468;2023-07-20T12:42:35;0.20;;;0.20;;
11082;SDS011;5595;50.186;8.468;2023-07-20T12:45:05;0.40;;;0.25;;
11082;SDS011;5595;50.186;8.468;2023-07-20T12:47:33;0.35;;;0.35;;
11082;SDS011;5595;50.186;8.468;2023-07-20T12:50:00;0.30;;;0.30;;
11082;SDS011;5595;50.186;8.468;2023-07-20T12:52:31;0.63;;;0.20;;
11082;SDS011;5595;50.186;8.468;2023-07-20T12:54:58;0.70;;;0.30;;
11082;SDS011;5595;50.186;8.468;2023-07-20T12:57:26;0.65;;;0.40;;
11082;SDS011;5595;50.186;8.468;2023-07-20T12:59:53;0.30;;;0.20;;
11082;SDS011;5595;50.186;8.468;2023-07-20T13:02:21;0.20;;;0.20;;
11082;SDS011;5595;50.186;8.468;2023-07-20T13:04:47;0.68;;;0.35;;
11082;SDS011;5595;50.186;8.468;2023-07-20T13:07:14;0.47;;;0.28;;
11082;SDS011;5595;50.186;8.468;2023-07-20T13:09:41;0.82;;;0.30;;
11082;SDS011;5595;50.186;8.468;2023-07-20T13:12:08;0.88;;;0.35;;
11082;SDS011;5595;50.186;8.468;2023-07-20T13:14:35;0.47;;;0.35;;
11082;SDS011;5595;50.186;8.468;2023-07-20T13:17:02;0.30;;;0.30;;
11082;SDS011;5595;50.186;8.468;2023-07-20T13:19:30;0.85;;;0.38;;
11082;SDS011;5595;50.186;8.468;2023-07-20T13:21:57;0.38;;;0.30;;
11082;SDS011;5595;50.186;8.468;2023-07-20T13:24:23;0.20;;;0.20;;
11082;SDS011;5595;50.186;8.468;2023-07-20T13:26:50;0.30;;;0.30;;
11082;SDS011;5595;50.186;8.468;2023-07-20T13:29:17;0.30;;;0.30;;
11082;SDS011;5595;50.186;8.468;2023-07-20T13:31:44;0.95;;;0.25;;
11082;SDS011;5595;50.186;8.468;2023-07-20T13:34:11;0.90;;;0.40;;
11082;SDS011;5595;50.186;8.468;2023-07-20T13:36:39;2.17;;;0.40;;
11082;SDS011;5595;50.186;8.468;2023-07-20T13:39:06;0.60;;;0.28;;
11082;SDS011;5595;50.186;8.468;2023-07-20T13:41:34;0.20;;;0.20;;
11082;SDS011;5595;50.186;8.468;2023-07-20T13:44:00;0.30;;;0.30;;
11082;SDS011;5595;50.186;8.468;2023-07-20T13:46:27;0.43;;;0.43;;
11082;SDS011;5595;50.186;8.468;2023-07-20T13:48:54;1.30;;;0.30;;
11082;SDS011;5595;50.186;8.468;2023-07-20T13:51:21;3.42;;;0.30;;
11082;SDS011;5595;50.186;8.468;2023-07-20T13:53:49;0.20;;;0.20;;
11082;SDS011;5595;50.186;8.468;2023-07-20T13:56:15;0.43;;;0.30;;
11082;SDS011;5595;50.186;8.468;2023-07-20T13:58:42;0.22;;;0.22;;
11082;SDS011;5595;50.186;8.468;2023-07-20T14:01:09;1.08;;;0.30;;
11082;SDS011;5595;50.186;8.468;2023-07-20T14:03:36;0.20;;;0.20;;
11082;SDS011;5595;50.186;8.468;2023-07-20T14:06:03;0.40;;;0.30;;
11082;SDS011;5595;50.186;8.468;2023-07-20T14:08:30;0.20;;;0.20;;
11082;SDS011;5595;50.186;8.468;2023-07-20T14:10:59;0.40;;;0.30;;
11082;SDS011;5595;50.186;8.468;2023-07-20T14:13:26;0.32;;;0.20;;
11082;SDS011;5595;50.186;8.468;2023-07-20T14:15:53;1.20;;;0.30;;
11082;SDS011;5595;50.186;8.468;2023-07-20T14:18:20;0.65;;;0.40;;
11082;SDS011;5595;50.186;8.468;2023-07-20T14:20:46;0.30;;;0.30;;
11082;SDS011;5595;50.186;8.468;2023-07-20T14:23:14;0.25;;;0.25;;
11082;SDS011;5595;50.186;8.468;2023-07-20T14:25:41;0.10;;;0.10;;
11082;SDS011;5595;50.186;8.468;2023-07-20T14:28:09;0.20;;;0.20;;
11082;SDS011;5595;50.186;8.468;2023-07-20T14:30:35;1.05;;;0.30;;
11082;SDS011;5595;50.186;8.468;2023-07-20T14:33:02;0.73;;;0.30;;
11082;SDS011;5595;50.186;8.468;2023-07-20T14:35:29;0.45;;;0.35;;
11082;SDS011;5595;50.186;8.468;2023-07-20T14:37:56;0.20;;;0.20;;
11082;SDS011;5595;50.186;8.468;2023-07-20T14:40:23;0.30;;;0.30;;
11082;SDS011;5595;50.186;8.468;2023-07-20T14:42:50;0.22;;;0.22;;
11082;SDS011;5595;50.186;8.468;2023-07-20T14:45:18;0.35;;;0.30;;
11082;SDS011;5595;50.186;8.468;2023-07-20T14:47:45;2.05;;;0.50;;
11082;SDS011;5595;50.186;8.468;2023-07-20T14:50:18;0.20;;;0.20;;
11082;SDS011;5595;50.186;8.468;2023-07-20T14:52:45;0.13;;;0.13;;
11082;SDS011;5595;50.186;8.468;2023-07-20T14:55:12;0.30;;;0.30;;
11082;SDS011;5595;50.186;8.468;2023-07-20T14:57:39;2.50;;;0.40;;
11082;SDS011;5595;50.186;8.468;2023-07-20T15:00:06;0.73;;;0.30;;
11082;SDS011;5595;50.186;8.468;2023-07-20T15:02:36;0.57;;;0.20;;
11082;SDS011;5595;50.186;8.468;2023-07-20T15:05:06;0.65;;;0.32;;
11082;SDS011;5595;50.186;8.468;2023-07-20T15:07:33;0.85;;;0.35;;
11082;SDS011;5595;50.186;8.468;2023-07-20T15:10:00;0.32;;;0.20;;